Time;durP1;ratioP1;P1;durP2;ratioP2;P2;SDS_P1;SDS_P2;PMS_P1;PMS_P2;Temp;Humidity;BMP_temperature;BMP_pressure;BME280_temperature;BME280_humidity;BME280_pressure;Samples;Min_cycle;Max_cycle;Signal;HPM_P1;HPM_P2
2023/01/28 00:02:06;;;;;;;24.33;10.25;;;2.60;99.90;;;;;;5087018;28;20049;-82
2023/01/28 00:04:31;;;;;;;27.27;11.10;;;2.50;99.90;;;;;;5053262;28;20136;-83
2023/01/28 00:06:57;;;;;;;24.17;10.45;;;2.60;99.90;;;;;;5036000;28;20080;-82
2023/01/28 00:09:23;;;;;;;24.75;10.50;;;2.50;99.90;;;;;;5053792;28;20114;-83
2023/01/28 00:11:48;;;;;;;27.60;11.45;;;2.50;99.90;;;;;;5035945;28;20044;-83
2023/01/28 00:14:14;;;;;;;27.02;11.75;;;2.60;99.90;;;;;;5035868;28;20064;-83
2023/01/28 00:16:40;;;;;;;24.67;10.52;;;2.50;99.90;;;;;;5052949;28;20476;-82
2023/01/28 00:19:06;;;;;;;29.90;11.57;;;2.60;99.90;;;;;;5053764;28;20084;-82
2023/01/28 00:21:32;;;;;;;22.80;9.77;;;2.50;99.90;;;;;;5055261;28;20401;-83
2023/01/28 00:23:57;;;;;;;27.42;11.10;;;2.50;99.90;;;;;;5037259;28;20045;-81
2023/01/28 00:26:27;;;;;;;28.60;11.93;;;2.50;99.90;;;;;;5070913;28;20052;-81
2023/01/28 00:28:52;;;;;;;26.38;10.80;;;2.50;99.90;;;;;;5056898;28;20033;-82
2023/01/28 00:31:21;;;;;;;27.05;12.15;;;2.50;99.90;;;;;;5061504;28;20176;-81
2023/01/28 00:33:48;;;;;;;24.63;10.38;;;2.50;99.90;;;;;;5056690;28;20167;-82
2023/01/28 00:36:16;;;;;;;26.98;11.20;;;2.40;99.90;;;;;;5057666;28;20069;-82
2023/01/28 00:38:42;;;;;;;25.73;11.15;;;2.40;99.90;;;;;;5089447;28;20477;-81
2023/01/28 00:41:14;;;;;;;35.95;11.77;;;2.40;99.90;;;;;;5089982;28;20052;-81
2023/01/28 00:43:40;;;;;;;30.02;12.57;;;2.50;99.90;;;;;;5058762;28;20448;-83
2023/01/28 00:46:08;;;;;;;26.65;11.55;;;2.40;99.90;;;;;;5057372;28;20370;-82
2023/01/28 00:48:34;;;;;;;;;;;2.40;99.90;;;;;;5040380;28;20474;-80
2023/01/28 00:50:59;;;;;;;26.58;11.13;;;2.30;99.90;;;;;;5058542;28;20041;-82
2023/01/28 00:53:25;;;;;;;24.35;11.30;;;2.30;99.90;;;;;;5059049;28;20089;-82
2023/01/28 00:55:51;;;;;;;29.20;11.77;;;2.30;99.90;;;;;;5055960;28;20048;-82
2023/01/28 00:58:17;;;;;;;24.77;11.05;;;2.30;99.90;;;;;;5058885;28;20119;-82
2023/01/28 01:00:43;;;;;;;26.27;11.27;;;2.30;99.90;;;;;;5060480;28;20084;-82
2023/01/28 01:03:09;;;;;;;25.65;10.88;;;2.30;99.90;;;;;;5040494;28;20048;-83
2023/01/28 01:05:35;;;;;;;29.55;12.20;;;2.30;99.90;;;;;;5057977;28;20487;-81
2023/01/28 01:08:01;;;;;;;26.63;11.20;;;2.30;99.90;;;;;;5028153;28;20045;-82
2023/01/28 01:10:26;;;;;;;24.25;11.07;;;2.40;99.90;;;;;;5056391;28;20457;-80
2023/01/28 01:12:52;;;;;;;28.65;13.63;;;2.30;99.90;;;;;;5056289;28;20053;-82
2023/01/28 01:15:18;;;;;;;27.48;12.23;;;2.30;99.90;;;;;;5056959;28;20115;-81
2023/01/28 01:17:46;;;;;;;29.50;12.35;;;2.20;99.90;;;;;;5089599;28;20059;-81
2023/01/28 01:20:18;;;;;;;30.58;11.75;;;2.30;99.90;;;;;;5055433;28;20045;-81
2023/01/28 01:22:44;;;;;;;27.92;11.40;;;2.30;99.90;;;;;;5057136;28;20119;-81
2023/01/28 01:25:11;;;;;;;28.85;11.75;;;2.30;99.90;;;;;;5063354;28;20056;-81
2023/01/28 01:27:36;;;;;;;26.70;10.38;;;2.20;99.90;;;;;;5055661;28;20049;-82
2023/01/28 01:30:02;;;;;;;29.45;11.82;;;2.30;99.90;;;;;;5056668;28;20094;-81
2023/01/28 01:32:30;;;;;;;28.92;11.75;;;2.30;99.90;;;;;;5022190;28;20056;-82
2023/01/28 01:34:56;;;;;;;26.67;11.07;;;2.30;99.90;;;;;;5053891;28;20528;-82
2023/01/28 01:37:21;;;;;;;31.63;13.18;;;2.20;99.90;;;;;;5037961;28;20049;-81
2023/01/28 01:39:47;;;;;;;31.73;13.65;;;2.20;99.90;;;;;;5054971;28;20426;-81
2023/01/28 01:42:14;;;;;;;28.35;11.88;;;2.20;99.90;;;;;;5055465;28;20087;-83
2023/01/28 01:45:11;;;;;;;29.70;12.67;;;2.10;99.90;;;;;;5056666;28;20045;-82
2023/01/28 01:48:08;;;;;;;28.08;11.98;;;2.20;99.90;;;;;;5055990;28;20378;-81
2023/01/28 01:50:44;;;;;;;29.85;11.93;;;2.10;99.90;;;;;;5055954;28;20051;-82
2023/01/28 01:53:17;;;;;;;28.35;11.68;;;2.10;99.90;;;;;;5088947;28;20048;-81
2023/01/28 01:55:48;;;;;;;25.77;12.23;;;2.20;99.90;;;;;;5055235;28;20093;-81
2023/01/28 01:58:18;;;;;;;29.58;15.45;;;2.10;99.90;;;;;;5093181;28;20416;-81
2023/01/28 02:00:44;;;;;;;29.70;12.40;;;2.00;99.90;;;;;;5054844;28;20076;-82
2023/01/28 02:03:11;;;;;;;25.27;11.70;;;2.10;99.90;;;;;;5038572;28;20160;-83
2023/01/28 02:05:38;;;;;;;29.02;13.20;;;2.10;99.90;;;;;;5038052;28;20087;-82
2023/01/28 02:08:22;;;;;;;23.80;11.07;;;2.10;99.90;;;;;;5038819;28;20135;-82
2023/01/28 02:10:52;;;;;;;23.80;11.75;;;2.10;99.90;;;;;;5041009;28;20127;-83
2023/01/28 02:13:21;;;;;;;26.88;11.30;;;2.20;99.90;;;;;;5056638;28;20048;-82
2023/01/28 02:15:47;;;;;;;27.75;11.68;;;2.20;99.90;;;;;;5057716;28;20424;-82
2023/01/28 02:18:13;;;;;;;25.73;11.77;;;2.20;99.90;;;;;;5042625;28;20053;-82
2023/01/28 02:20:45;;;;;;;26.13;11.80;;;2.20;99.90;;;;;;5063479;28;20044;-82
2023/01/28 02:23:38;;;;;;;25.35;11.70;;;2.20;99.90;;;;;;5060100;28;20052;-82
2023/01/28 02:26:31;;;;;;;23.60;10.88;;;2.20;99.90;;;;;;5077211;28;20037;-82
2023/01/28 02:29:26;;;;;;;24.00;10.95;;;2.10;99.90;;;;;;5073788;28;20049;-84
2023/01/28 02:31:58;;;;;;;23.50;10.55;;;2.10;99.90;;;;;;5057741;28;20056;-82
2023/01/28 02:34:34;;;;;;;21.27;9.68;;;2.00;99.90;;;;;;5028868;28;1121934;-83
2023/01/28 02:37:19;;;;;;;22.33;10.10;;;1.90;99.90;;;;;;5059064;28;20083;-82
2023/01/28 02:40:01;;;;;;;24.65;10.40;;;1.90;99.90;;;;;;5062172;28;20053;-83
2023/01/28 02:42:33;;;;;;;24.85;12.02;;;2.00;99.90;;;;;;5062439;28;20051;-81
2023/01/28 02:44:59;;;;;;;24.92;10.10;;;1.90;99.90;;;;;;5066856;28;20053;-81
2023/01/28 02:50:16;;;;;;;24.05;11.77;;;1.90;99.90;;;;;;5092536;28;20049;-83
2023/01/28 02:55:50;;;;;;;22.00;9.70;;;1.80;99.90;;;;;;5071042;28;20059;-82
2023/01/28 02:58:43;;;;;;;23.20;9.65;;;1.90;99.90;;;;;;5065895;28;20105;-84
2023/01/28 03:01:29;;;;;;;24.27;9.57;;;1.80;99.90;;;;;;5062366;28;20485;-81
2023/01/28 03:03:57;;;;;;;25.27;9.60;;;1.80;99.90;;;;;;5067773;28;20051;-82
2023/01/28 03:06:37;;;;;;;23.92;9.75;;;1.80;99.90;;;;;;5080371;28;20060;-83
2023/01/28 03:09:22;;;;;;;21.55;9.52;;;1.80;99.90;;;;;;5059025;28;20045;-83
2023/01/28 03:38:22;;;;;;;20.70;9.23;;;1.70;99.90;;;;;;5054362;28;20067;-73
2023/01/28 03:40:54;;;;;;;22.52;10.02;;;1.70;99.90;;;;;;5053986;28;20071;-74
2023/01/28 03:43:20;;;;;;;20.48;8.68;;;1.70;99.90;;;;;;5053858;28;20041;-74
2023/01/28 03:45:50;;;;;;;23.02;10.82;;;1.70;99.90;;;;;;5086271;28;20045;-73
2023/01/28 03:48:18;;;;;;;25.70;10.60;;;1.70;99.90;;;;;;5054165;28;20053;-74
2023/01/28 03:50:45;;;;;;;22.42;9.13;;;1.70;99.90;;;;;;5053636;28;20049;-75
2023/01/28 03:53:14;;;;;;;20.88;9.10;;;1.80;99.90;;;;;;5054219;28;20044;-73
2023/01/28 03:55:44;;;;;;;22.33;9.32;;;1.80;99.90;;;;;;5055448;28;20099;-73
2023/01/28 03:58:11;;;;;;;23.75;9.75;;;1.70;99.90;;;;;;5056089;28;20045;-74
2023/01/28 04:00:40;;;;;;;22.60;9.98;;;1.80;99.90;;;;;;5054605;28;20122;-73
2023/01/28 04:03:14;;;;;;;24.20;9.48;;;1.70;99.90;;;;;;5054441;28;20132;-73
2023/01/28 04:05:42;;;;;;;22.08;9.68;;;1.70;99.90;;;;;;5053795;28;20045;-74
2023/01/28 04:08:08;;;;;;;21.15;9.38;;;1.70;99.90;;;;;;5052571;28;20117;-74
2023/01/28 04:10:34;;;;;;;23.40;9.63;;;1.70;99.90;;;;;;5053382;28;20041;-74
2023/01/28 04:12:59;;;;;;;23.23;10.23;;;1.80;99.90;;;;;;5053048;28;20132;-73
2023/01/28 04:15:25;;;;;;;22.45;9.52;;;1.80;99.90;;;;;;5069044;28;20056;-73
2023/01/28 04:17:51;;;;;;;24.23;10.15;;;1.80;99.90;;;;;;5069092;28;20052;-73
2023/01/28 04:20:17;;;;;;;21.40;9.38;;;1.80;99.90;;;;;;5053512;28;20041;-74
2023/01/28 04:22:42;;;;;;;21.50;9.23;;;1.80;99.90;;;;;;5053757;28;20454;-73
2023/01/28 04:25:09;;;;;;;21.80;9.65;;;1.80;99.90;;;;;;5086101;28;20110;-74
2023/01/28 04:27:34;;;;;;;22.30;9.30;;;1.70;99.90;;;;;;5085800;28;20048;-74
2023/01/28 04:30:00;;;;;;;19.63;8.77;;;1.70;99.90;;;;;;5053053;28;20049;-73
2023/01/28 04:32:26;;;;;;;19.85;8.52;;;1.70;99.90;;;;;;5053773;28;20359;-73
2023/01/28 04:34:52;;;;;;;18.88;7.78;;;1.70;99.90;;;;;;5053560;28;20482;-75
2023/01/28 04:37:17;;;;;;;20.58;9.27;;;1.70;99.90;;;;;;5052707;28;20064;-74
2023/01/28 04:39:43;;;;;;;22.52;9.80;;;1.70;99.90;;;;;;5053178;28;20501;-75
2023/01/28 04:42:09;;;;;;;20.13;9.10;;;1.70;99.90;;;;;;5053024;28;20154;-73
2023/01/28 04:44:34;;;;;;;21.88;9.00;;;1.70;99.90;;;;;;5052274;28;20048;-74
2023/01/28 04:47:00;;;;;;;23.25;9.52;;;1.70;99.90;;;;;;5053011;28;20041;-74
2023/01/28 04:49:26;;;;;;;24.00;9.32;;;1.70;99.90;;;;;;5053033;28;20048;-74
2023/01/28 04:51:51;;;;;;;23.40;9.75;;;1.70;99.90;;;;;;5051749;28;20045;-75
2023/01/28 04:54:17;;;;;;;21.30;9.13;;;1.70;99.90;;;;;;5051912;28;20041;-74
2023/01/28 04:56:43;;;;;;;21.42;9.07;;;1.80;99.90;;;;;;5052996;28;20055;-73
2023/01/28 04:59:08;;;;;;;22.02;8.98;;;1.80;99.90;;;;;;5052832;28;20068;-73
2023/01/28 05:01:34;;;;;;;20.45;8.20;;;1.80;99.90;;;;;;5051793;28;20055;-74
2023/01/28 05:04:04;;;;;;;19.42;8.20;;;1.80;99.90;;;;;;5052818;28;20525;-73
2023/01/28 05:06:31;;;;;;;19.48;7.80;;;1.80;99.90;;;;;;5085109;28;20063;-74
2023/01/28 05:08:57;;;;;;;25.48;9.02;;;1.70;99.90;;;;;;5034856;28;20466;-73
2023/01/28 05:11:23;;;;;;;21.73;8.55;;;1.80;99.90;;;;;;5036076;28;20052;-74
2023/01/28 05:13:49;;;;;;;22.17;8.43;;;1.80;99.90;;;;;;5056304;28;20057;-74
2023/01/28 05:16:15;;;;;;;21.17;8.88;;;1.80;99.90;;;;;;5056089;28;20098;-73
2023/01/28 05:18:40;;;;;;;20.60;8.52;;;1.80;99.90;;;;;;5056430;28;20095;-74
2023/01/28 05:21:06;;;;;;;20.02;7.85;;;1.80;99.90;;;;;;5056466;28;20048;-73
2023/01/28 05:23:32;;;;;;;23.40;9.52;;;1.90;99.90;;;;;;5057046;28;20121;-73
2023/01/28 05:25:58;;;;;;;21.63;8.88;;;1.80;99.90;;;;;;5055412;28;20503;-74
2023/01/28 05:28:23;;;;;;;22.15;9.30;;;1.80;99.90;;;;;;5056155;28;20095;-73
2023/01/28 05:30:49;;;;;;;21.27;8.85;;;1.70;99.90;;;;;;5055037;28;20127;-73
2023/01/28 05:33:15;;;;;;;24.45;8.80;;;1.70;99.90;;;;;;5055466;28;20120;-73
2023/01/28 05:35:42;;;;;;;20.70;7.75;;;1.70;99.90;;;;;;5054997;28;20482;-74
2023/01/28 05:38:08;;;;;;;22.52;9.13;;;1.70;99.90;;;;;;5056570;28;20045;-74
2023/01/28 05:40:33;;;;;;;22.73;8.18;;;1.70;99.90;;;;;;5055648;28;20198;-74
2023/01/28 05:42:59;;;;;;;22.90;8.43;;;1.70;99.90;;;;;;5055890;28;20426;-75
2023/01/28 05:45:25;;;;;;;20.23;8.45;;;1.70;99.90;;;;;;5055939;28;20041;-73
2023/01/28 05:47:51;;;;;;;22.65;8.32;;;1.70;99.90;;;;;;5038603;28;20115;-74
2023/01/28 05:50:16;;;;;;;19.05;7.68;;;1.80;99.90;;;;;;5055955;28;20041;-75
2023/01/28 05:52:42;;;;;;;20.95;7.97;;;1.80;99.90;;;;;;5055118;28;20048;-73
2023/01/28 05:55:09;;;;;;;23.63;8.73;;;1.80;99.90;;;;;;5038063;28;20049;-73
2023/01/28 05:57:35;;;;;;;19.37;7.57;;;1.80;99.90;;;;;;5054555;28;20052;-73
2023/01/28 06:00:00;;;;;;;20.55;7.85;;;1.70;99.90;;;;;;5055517;28;20041;-74
2023/01/28 06:02:26;;;;;;;20.20;8.10;;;1.70;99.90;;;;;;5055560;28;20088;-74
2023/01/28 06:04:52;;;;;;;20.83;8.05;;;1.70;99.90;;;;;;5054423;28;20049;-73
2023/01/28 06:07:19;;;;;;;21.60;8.55;;;1.80;99.90;;;;;;5021337;28;20041;-73
2023/01/28 06:09:46;;;;;;;16.58;7.18;;;1.70;99.90;;;;;;5054251;28;20402;-74
2023/01/28 06:12:12;;;;;;;21.05;8.57;;;1.60;99.90;;;;;;5055921;28;20381;-73
2023/01/28 06:14:38;;;;;;;17.70;7.28;;;1.60;99.90;;;;;;5037970;28;20041;-73
2023/01/28 06:17:03;;;;;;;17.10;6.55;;;1.60;99.90;;;;;;5055259;28;20048;-75
2023/01/28 06:19:29;;;;;;;16.13;6.70;;;1.70;99.90;;;;;;5054074;28;20417;-74
2023/01/28 06:21:55;;;;;;;16.10;6.97;;;1.70;99.90;;;;;;5056010;28;20084;-74
2023/01/28 06:24:20;;;;;;;19.80;8.05;;;1.70;99.90;;;;;;5054390;28;20405;-73
2023/01/28 06:26:46;;;;;;;21.23;8.15;;;1.70;99.90;;;;;;5054490;28;20525;-73
2023/01/28 06:29:12;;;;;;;21.75;8.10;;;1.70;99.90;;;;;;5055016;28;20052;-74
2023/01/28 06:31:38;;;;;;;20.15;7.82;;;1.70;99.90;;;;;;5037669;28;20398;-74
2023/01/28 06:34:03;;;;;;;20.13;8.90;;;1.70;99.90;;;;;;5053614;28;20147;-77
2023/01/28 06:36:29;;;;;;;20.13;8.10;;;1.70;99.90;;;;;;5054522;28;20096;-74
2023/01/28 06:38:56;;;;;;;19.52;7.93;;;1.70;99.90;;;;;;5054971;28;20124;-74
2023/01/28 06:41:22;;;;;;;17.88;7.50;;;1.70;99.90;;;;;;5054216;28;20047;-74
2023/01/28 06:43:47;;;;;;;21.15;8.75;;;1.70;99.90;;;;;;5037343;28;20128;-74
2023/01/28 06:46:13;;;;;;;18.88;8.77;;;1.70;99.90;;;;;;5054715;28;20132;-74
2023/01/28 06:48:39;;;;;;;20.73;8.38;;;1.70;99.90;;;;;;5054017;28;20124;-75
2023/01/28 06:51:04;;;;;;;22.23;8.88;;;1.70;99.90;;;;;;5054482;28;20048;-74
2023/01/28 06:53:30;;;;;;;19.70;9.07;;;1.60;99.90;;;;;;5054600;28;20111;-73
2023/01/28 06:55:56;;;;;;;23.58;8.82;;;1.70;99.90;;;;;;5054552;28;20103;-74
2023/01/28 06:58:22;;;;;;;19.35;8.20;;;1.70;99.90;;;;;;5054527;28;20051;-74
2023/01/28 07:00:47;;;;;;;22.63;8.45;;;1.70;99.90;;;;;;5053356;28;20076;-74
2023/01/28 07:03:13;;;;;;;19.50;8.55;;;1.70;99.90;;;;;;5054643;28;20048;-75
2023/01/28 07:05:39;;;;;;;20.75;8.75;;;1.70;99.90;;;;;;5053523;28;20473;-74
2023/01/28 07:08:05;;;;;;;22.65;9.15;;;1.70;99.90;;;;;;5036790;28;20599;-75
2023/01/28 07:10:31;;;;;;;25.13;9.95;;;1.70;99.90;;;;;;5054217;28;20041;-74
2023/01/28 07:12:57;;;;;;;19.25;8.63;;;1.70;99.90;;;;;;5053127;28;20043;-75
2023/01/28 07:15:22;;;;;;;21.85;8.85;;;1.70;99.90;;;;;;5053425;28;20052;-75
2023/01/28 07:17:48;;;;;;;24.40;9.25;;;1.70;99.90;;;;;;5053020;28;20512;-75
2023/01/28 07:20:16;;;;;;;21.95;9.05;;;1.70;99.90;;;;;;5054389;28;20056;-74
2023/01/28 07:22:43;;;;;;;24.38;10.35;;;1.60;99.90;;;;;;5054223;28;20106;-74
2023/01/28 07:25:10;;;;;;;24.23;9.57;;;1.60;99.90;;;;;;5054045;28;20049;-74
2023/01/28 07:27:36;;;;;;;;;;;1.70;99.90;;;;;;5054453;28;20049;-75
2023/01/28 07:30:02;;;;;;;19.92;8.20;;;1.60;99.90;;;;;;5053642;28;19990;-74
2023/01/28 07:32:28;;;;;;;20.85;8.75;;;1.60;99.90;;;;;;5052801;28;20049;-75
2023/01/28 07:34:54;;;;;;;21.20;8.60;;;1.60;99.90;;;;;;5053543;28;20057;-74
2023/01/28 07:37:20;;;;;;;23.33;9.45;;;1.60;99.90;;;;;;5052250;28;20128;-75
2023/01/28 07:39:46;;;;;;;22.20;9.10;;;1.60;99.90;;;;;;5053165;28;20076;-72
2023/01/28 07:42:12;;;;;;;24.45;9.38;;;1.70;99.90;;;;;;5053716;28;20045;-75
2023/01/28 07:44:38;;;;;;;24.13;9.52;;;1.70;99.90;;;;;;5035912;28;20075;-73
2023/01/28 07:47:05;;;;;;;25.92;10.18;;;1.70;99.90;;;;;;5053674;28;20102;-74
2023/01/28 07:49:33;;;;;;;24.17;9.05;;;1.70;99.90;;;;;;5054061;28;20497;-73
2023/01/28 07:51:59;;;;;;;25.02;9.23;;;1.70;99.90;;;;;;5053777;28;20052;-75
2023/01/28 07:54:25;;;;;;;24.40;9.80;;;1.80;99.90;;;;;;5052401;28;20178;-74
2023/01/28 07:56:51;;;;;;;26.10;10.00;;;1.80;99.90;;;;;;5053601;28;20139;-75
2023/01/28 07:59:16;;;;;;;24.40;9.20;;;1.80;99.90;;;;;;5054112;28;20120;-74
2023/01/28 08:01:42;;;;;;;23.70;9.65;;;1.80;99.90;;;;;;5053940;28;20608;-74
2023/01/28 08:04:08;;;;;;;21.50;8.90;;;1.80;99.90;;;;;;5054220;28;20045;-74
2023/01/28 08:06:36;;;;;;;23.25;9.43;;;1.80;99.90;;;;;;5053549;28;20048;-75
2023/01/28 08:09:07;;;;;;;24.15;9.02;;;1.80;99.90;;;;;;5052603;28;20055;-74
2023/01/28 08:11:40;;;;;;;25.20;9.57;;;1.90;99.90;;;;;;5053827;28;20052;-74
2023/01/28 08:14:06;;;;;;;23.58;9.05;;;1.90;99.90;;;;;;5053362;28;20049;-75
2023/01/28 08:16:31;;;;;;;23.20;8.88;;;1.90;99.90;;;;;;5055483;28;20044;-75
2023/01/28 08:18:57;;;;;;;21.90;8.25;;;1.90;99.90;;;;;;5055642;28;20053;-74
2023/01/28 08:21:23;;;;;;;26.08;9.50;;;1.80;99.90;;;;;;5056356;28;20060;-75
2023/01/28 08:23:49;;;;;;;24.08;8.75;;;1.70;99.90;;;;;;5058066;28;20041;-73
2023/01/28 08:26:14;;;;;;;22.00;8.70;;;1.70;99.90;;;;;;5055878;28;20098;-75
2023/01/28 08:28:40;;;;;;;24.45;9.45;;;1.60;99.90;;;;;;5052570;28;20084;-75
2023/01/28 08:31:06;;;;;;;23.83;8.82;;;1.50;99.90;;;;;;5052074;28;20064;-74
2023/01/28 08:33:32;;;;;;;27.88;9.63;;;1.40;99.90;;;;;;5069311;28;20058;-74
2023/01/28 08:36:01;;;;;;;26.67;10.30;;;1.30;99.90;;;;;;5051578;28;20061;-74
2023/01/28 08:38:26;;;;;;;23.88;8.65;;;1.40;99.90;;;;;;5051848;28;20080;-74
2023/01/28 08:40:56;;;;;;;23.25;9.35;;;1.30;99.90;;;;;;5051836;28;20091;-74
2023/01/28 08:43:22;;;;;;;23.73;9.57;;;1.20;99.90;;;;;;5052967;28;20045;-75
2023/01/28 08:45:49;;;;;;;23.58;9.45;;;1.30;99.90;;;;;;5086375;28;20055;-75
2023/01/28 08:48:17;;;;;;;26.05;9.80;;;1.30;99.90;;;;;;5053545;28;20052;-74
2023/01/28 08:50:43;;;;;;;23.95;8.90;;;1.40;99.90;;;;;;5056950;28;20049;-75
2023/01/28 08:53:12;;;;;;;23.05;9.02;;;1.30;99.90;;;;;;5039431;28;20049;-76
2023/01/28 08:55:38;;;;;;;25.48;10.32;;;1.30;99.90;;;;;;5056878;28;20045;-74
2023/01/28 08:58:05;;;;;;;26.50;10.20;;;1.30;99.90;;;;;;5056693;28;20485;-75
2023/01/28 09:00:32;;;;;;;26.73;10.23;;;1.30;99.90;;;;;;5055386;28;20041;-75
2023/01/28 09:02:58;;;;;;;26.98;9.70;;;1.30;99.90;;;;;;5056822;28;20091;-75
2023/01/28 09:05:24;;;;;;;25.30;9.07;;;1.40;99.90;;;;;;5056424;28;20084;-75
2023/01/28 09:07:50;;;;;;;30.40;10.25;;;1.40;99.90;;;;;;5056468;28;20044;-74
2023/01/28 09:10:16;;;;;;;26.27;9.80;;;1.50;99.90;;;;;;5056518;28;20041;-75
2023/01/28 09:12:43;;;;;;;31.55;9.98;;;1.50;99.90;;;;;;5056317;28;20049;-75
2023/01/28 09:15:09;;;;;;;27.33;9.82;;;1.60;99.90;;;;;;5056291;28;20045;-75
2023/01/28 09:17:35;;;;;;;26.88;10.18;;;1.50;99.90;;;;;;5056354;28;20081;-77
2023/01/28 09:20:01;;;;;;;27.05;9.70;;;1.60;99.90;;;;;;5058240;28;20044;-76
2023/01/28 09:22:27;;;;;;;27.23;9.48;;;1.60;99.90;;;;;;5057973;28;20075;-76
2023/01/28 09:24:52;;;;;;;22.83;8.88;;;1.80;99.90;;;;;;5056456;28;20049;-76
2023/01/28 09:27:18;;;;;;;22.80;7.93;;;1.90;99.90;;;;;;5038623;28;20127;-75
2023/01/28 09:29:44;;;;;;;22.50;8.98;;;2.00;99.90;;;;;;5038817;28;20044;-75
2023/01/28 09:32:10;;;;;;;28.95;9.18;;;2.00;99.90;;;;;;5056111;28;20060;-74
2023/01/28 09:34:36;;;;;;;24.15;8.65;;;2.00;99.90;;;;;;5054535;28;20049;-75
2023/01/28 09:37:02;;;;;;;20.50;8.35;;;2.00;99.90;;;;;;5056140;28;20473;-74
2023/01/28 09:39:28;;;;;;;22.92;8.80;;;2.10;99.90;;;;;;5055771;28;20055;-74
2023/01/28 09:41:59;;;;;;;24.05;8.52;;;2.10;99.90;;;;;;5038412;28;20102;-75
2023/01/28 09:44:54;;;;;;;22.50;8.65;;;2.30;99.90;;;;;;5054634;28;20053;-76
2023/01/28 09:47:34;;;;;;;20.65;8.10;;;2.40;99.90;;;;;;5054585;28;20049;-75
2023/01/28 09:50:06;;;;;;;20.73;7.72;;;2.60;99.90;;;;;;5055898;28;20040;-75
2023/01/28 09:52:35;;;;;;;19.52;7.93;;;2.80;99.90;;;;;;5055198;28;20397;-75
2023/01/28 09:55:33;;;;;;;19.17;7.35;;;3.00;99.90;;;;;;5055137;28;20051;-74
2023/01/28 09:57:58;;;;;;;20.95;7.72;;;2.90;99.90;;;;;;5056129;28;20044;-74
2023/01/28 10:01:01;;;;;;;19.40;7.50;;;3.00;99.90;;;;;;5056825;28;20036;-75
2023/01/28 10:04:02;;;;;;;15.20;5.97;;;3.00;99.90;;;;;;5024904;28;20052;-74
2023/01/28 10:07:03;;;;;;;16.95;6.07;;;3.00;99.90;;;;;;5072341;28;20053;-75
2023/01/28 10:09:58;;;;;;;15.27;5.70;;;3.00;99.90;;;;;;5055034;28;20452;-75
2023/01/28 10:12:38;;;;;;;15.38;5.93;;;3.00;99.90;;;;;;5055406;28;20053;-75
2023/01/28 10:15:28;;;;;;;13.60;5.50;;;2.90;99.90;;;;;;5055889;28;20134;-75
2023/01/28 10:18:06;;;;;;;15.18;6.22;;;2.90;99.90;;;;;;5054494;28;20049;-74
2023/01/28 10:20:37;;;;;;;16.52;6.05;;;2.80;99.90;;;;;;5037042;28;20049;-75
2023/01/28 10:23:23;;;;;;;15.63;6.22;;;2.80;99.90;;;;;;5088038;28;20136;-76
2023/01/28 10:25:49;;;;;;;15.65;6.60;;;2.80;99.90;;;;;;5055310;28;20047;-75
2023/01/28 10:28:24;;;;;;;15.05;6.20;;;2.70;99.90;;;;;;5053856;28;20481;-75
2023/01/28 10:30:50;;;;;;;16.35;6.53;;;2.80;99.90;;;;;;5055646;28;20037;-74
2023/01/28 10:33:38;;;;;;;13.48;5.60;;;2.80;99.90;;;;;;5087515;28;20124;-77
2023/01/28 10:36:06;;;;;;;15.27;5.72;;;2.80;99.90;;;;;;5054474;28;20052;-75
2023/01/28 10:38:32;;;;;;;14.38;5.68;;;2.80;99.90;;;;;;5054768;28;20405;-74
2023/01/28 10:41:02;;;;;;;14.07;5.72;;;2.80;99.90;;;;;;5053556;28;20044;-75
2023/01/28 10:43:37;;;;;;;14.10;5.63;;;2.80;99.90;;;;;;5087175;28;20055;-74
2023/01/28 10:46:17;;;;;;;13.70;6.18;;;2.90;99.90;;;;;;5054616;28;20080;-74
2023/01/28 10:48:52;;;;;;;16.40;6.70;;;2.90;99.90;;;;;;5086978;28;20072;-76
2023/01/28 10:51:18;;;;;;;15.70;6.78;;;3.00;99.90;;;;;;5054618;28;20162;-75
2023/01/28 10:53:45;;;;;;;17.40;6.53;;;3.00;99.90;;;;;;5053852;28;20056;-76
2023/01/28 10:56:24;;;;;;;15.57;6.22;;;3.00;99.90;;;;;;5054609;28;20365;-74
2023/01/28 10:58:59;;;;;;;17.30;6.95;;;3.10;99.90;;;;;;5055564;28;20124;-74
2023/01/28 11:01:37;;;;;;;15.88;5.78;;;3.00;99.90;;;;;;5055128;28;20045;-74
2023/01/28 11:04:03;;;;;;;16.08;6.00;;;3.10;99.90;;;;;;5055104;28;20048;-75
2023/01/28 11:06:29;;;;;;;17.75;6.10;;;3.10;99.90;;;;;;5053660;28;20044;-75
2023/01/28 11:08:55;;;;;;;14.50;5.75;;;3.10;99.90;;;;;;5054082;28;20144;-74
2023/01/28 11:11:28;;;;;;;15.50;5.55;;;3.20;99.90;;;;;;5053776;28;20052;-76
2023/01/28 11:13:57;;;;;;;15.70;5.32;;;3.30;99.90;;;;;;5053061;28;20110;-75
2023/01/28 11:16:24;;;;;;;16.83;5.28;;;3.30;99.90;;;;;;5053943;28;20128;-74
2023/01/28 11:18:52;;;;;;;12.63;5.05;;;3.30;99.90;;;;;;5036418;28;20052;-75
2023/01/28 11:21:22;;;;;;;15.63;6.50;;;3.40;99.90;;;;;;5054009;28;20045;-76
2023/01/28 11:23:48;;;;;;;13.95;6.00;;;3.40;99.90;;;;;;5053981;28;20048;-76
2023/01/28 11:26:19;;;;;;;14.20;5.75;;;3.50;99.90;;;;;;5054510;28;20053;-76
2023/01/28 11:28:45;;;;;;;14.27;5.32;;;3.40;99.90;;;;;;5053795;28;20382;-79
2023/01/28 11:31:16;;;;;;;14.90;5.85;;;3.50;99.90;;;;;;5053838;28;20063;-75
2023/01/28 11:33:52;;;;;;;15.35;5.80;;;3.50;99.90;;;;;;5055103;28;20049;-75
2023/01/28 11:36:33;;;;;;;15.27;6.05;;;3.40;99.90;;;;;;5057987;28;20061;-77
2023/01/28 11:39:21;;;;;;;15.63;6.20;;;3.50;99.90;;;;;;5050088;28;20087;-75
2023/01/28 11:41:47;;;;;;;15.48;6.15;;;3.40;99.90;;;;;;5054604;28;20048;-75
2023/01/28 11:44:25;;;;;;;15.82;5.97;;;3.40;99.90;;;;;;5053388;28;20131;-74
2023/01/28 11:46:59;;;;;;;17.08;6.97;;;3.40;99.90;;;;;;5052521;28;20049;-76
2023/01/28 11:50:06;;;;;;;18.92;7.22;;;3.40;99.90;;;;;;5053741;28;20043;-77
2023/01/28 11:52:34;;;;;;;;;;;3.50;99.90;;;;;;5005598;28;20052;-75
2023/01/28 11:55:33;;;;;;;19.20;6.82;;;3.70;99.90;;;;;;5053748;28;19920;-76
2023/01/28 11:58:24;;;;;;;17.23;6.38;;;3.70;99.90;;;;;;5054105;28;20102;-76
2023/01/28 12:01:24;;;;;;;15.30;5.65;;;3.70;99.90;;;;;;5053130;28;20486;-75
2023/01/28 12:03:49;;;;;;;18.67;6.53;;;3.80;99.90;;;;;;5053104;28;20052;-75
2023/01/28 12:06:21;;;;;;;15.88;6.18;;;3.80;99.90;;;;;;5054199;28;20045;-75
2023/01/28 12:09:13;;;;;;;18.52;5.90;;;3.80;99.90;;;;;;5053195;28;20041;-74
2023/01/28 12:12:13;;;;;;;14.25;5.07;;;3.90;99.90;;;;;;5006358;28;20060;-74
2023/01/28 12:14:38;;;;;;;12.73;4.75;;;4.00;99.90;;;;;;5053626;28;20481;-75
2023/01/28 12:17:13;;;;;;;14.13;5.53;;;4.10;99.90;;;;;;5036135;28;20099;-75
2023/01/28 12:19:52;;;;;;;14.68;5.13;;;4.20;99.90;;;;;;5053671;28;20052;-75
2023/01/28 12:22:33;;;;;;;14.65;5.32;;;4.40;99.90;;;;;;5056526;28;20057;-74
2023/01/28 12:25:02;;;;;;;17.25;6.10;;;4.50;99.90;;;;;;5057816;28;20049;-74
2023/01/28 12:27:34;;;;;;;13.48;5.90;;;4.60;99.90;;;;;;5056543;28;20045;-75
2023/01/28 12:30:18;;;;;;;19.02;6.38;;;4.60;99.90;;;;;;5056163;28;20477;-73
2023/01/28 12:33:08;;;;;;;14.07;5.38;;;4.60;99.90;;;;;;5058161;28;20052;-74
2023/01/28 12:36:06;;;;;;;14.02;5.40;;;4.70;99.90;;;;;;5060371;28;20045;-76
2023/01/28 12:38:31;;;;;;;14.13;5.32;;;4.80;99.90;;;;;;5060231;28;20037;-75
2023/01/28 12:41:09;;;;;;;15.27;6.18;;;4.80;99.90;;;;;;5059643;28;20041;-75
2023/01/28 12:43:58;;;;;;;15.88;6.00;;;4.80;99.90;;;;;;5042403;28;20080;-75
2023/01/28 12:46:32;;;;;;;15.60;5.70;;;4.90;99.90;;;;;;5056681;28;20056;-75
2023/01/28 12:49:20;;;;;;;13.85;5.55;;;4.90;99.90;;;;;;5055937;28;20045;-75
2023/01/28 12:52:25;;;;;;;18.40;6.30;;;4.90;99.90;;;;;;5056918;28;20057;-75
2023/01/28 12:55:05;;;;;;;15.25;5.90;;;5.00;99.90;;;;;;5055656;28;20049;-75
2023/01/28 12:57:34;;;;;;;17.35;7.68;;;5.00;99.90;;;;;;5055948;28;20072;-79
2023/01/28 13:00:24;;;;;;;16.88;6.65;;;4.90;99.90;;;;;;5055738;28;20135;-75
2023/01/28 13:02:57;;;;;;;14.15;5.82;;;4.90;99.90;;;;;;5056945;28;20126;-76
2023/01/28 13:05:32;;;;;;;20.35;7.03;;;4.70;99.90;;;;;;5039320;28;20135;-77
2023/01/28 13:08:10;;;;;;;16.33;6.28;;;4.60;99.90;;;;;;5089415;28;20077;-74
2023/01/28 13:10:40;;;;;;;18.10;6.60;;;4.50;99.90;;;;;;5039600;28;20051;-74
2023/01/28 13:13:12;;;;;;;17.77;7.30;;;4.30;99.90;;;;;;5089871;28;20533;-74
2023/01/28 13:15:41;;;;;;;25.15;10.57;;;4.10;99.90;;;;;;5055964;28;20048;-74
2023/01/28 13:18:07;;;;;;;15.52;6.75;;;4.10;99.90;;;;;;5089346;28;20470;-75
2023/01/28 13:20:47;;;;;;;17.10;6.13;;;4.00;99.90;;;;;;5057270;28;20099;-74
2023/01/28 13:23:41;;;;;;;16.90;5.57;;;4.10;99.90;;;;;;5057231;28;20113;-74
2023/01/28 13:26:18;;;;;;;16.48;5.72;;;4.10;99.90;;;;;;5057162;28;20059;-74
2023/01/28 13:28:45;;;;;;;13.82;4.93;;;4.10;99.90;;;;;;5056333;28;20051;-74
2023/01/28 13:31:16;;;;;;;;;;;4.10;99.90;;;;;;5057257;28;20083;-74
2023/01/28 13:34:02;;;;;;;15.65;5.90;;;4.10;99.90;;;;;;5056522;28;20007;-75
2023/01/28 13:36:36;;;;;;;20.13;6.30;;;4.20;99.90;;;;;;5054995;28;20490;-74